Time;durP1;ratioP1;P1;durP2;ratioP2;P2;SDS_P1;SDS_P2;PMS_P1;PMS_P2;Temp;Humidity;BMP_temperature;BMP_pressure;BME280_temperature;BME280_humidity;BME280_pressure;Samples;Min_cycle;Max_cycle;Signal;HPM_P1;HPM_P2
2022/11/08 00:03:28;;;;;;;10.80;3.90;;;;;;;8.42;98.21;99558.61;105919;1292;71554;-77
2022/11/08 00:15:37;;;;;;;11.60;4.30;;;;;;;8.26;99.04;99550.46;105920;1292;61208;-77
2022/11/08 00:18:25;;;;;;;11.30;4.70;;;;;;;8.24;98.89;99552.05;105925;1292;72730;-78
2022/11/08 00:21:13;;;;;;;9.40;3.90;;;;;;;8.21;99.56;99554.27;105883;1293;68922;-78
2022/11/08 00:24:00;;;;;;;11.40;4.00;;;;;;;8.18;99.75;99559.51;105873;1292;72594;-78
2022/11/08 00:26:48;;;;;;;8.00;3.60;;;;;;;8.19;99.95;99557.51;105896;1292;60477;-77
2022/11/08 00:29:36;;;;;;;10.60;4.90;;;;;;;8.21;100.00;99557.08;105913;1291;61335;-76
2022/11/08 00:32:25;;;;;;;13.60;4.40;;;;;;;8.24;100.00;99558.05;105912;1290;71641;-77
2022/11/08 00:35:13;;;;;;;12.10;4.50;;;;;;;8.28;100.00;99553.38;105935;1291;67794;-77
2022/11/08 00:38:02;;;;;;;14.10;5.20;;;;;;;8.30;100.00;99549.97;105880;1298;73732;-75
2022/11/08 00:40:50;;;;;;;11.60;4.10;;;;;;;8.34;100.00;99565.21;105900;1291;57914;-76
2022/11/08 00:43:38;;;;;;;13.90;5.30;;;;;;;8.39;100.00;99568.06;105909;1292;60142;-76
2022/11/08 00:46:26;;;;;;;10.60;4.20;;;;;;;8.43;100.00;99565.13;105926;1291;71472;-77
2022/11/08 00:49:14;;;;;;;11.60;4.50;;;;;;;8.47;100.00;99571.73;105930;1292;68229;-81
2022/11/08 00:52:03;;;;;;;11.00;4.30;;;;;;;8.50;100.00;99570.95;105884;1292;73819;-79
2022/11/08 00:54:50;;;;;;;10.40;4.50;;;;;;;8.53;100.00;99567.90;105913;1291;59278;-78
2022/11/08 00:57:38;;;;;;;10.10;4.30;;;;;;;8.55;100.00;99564.58;105940;1291;59100;-78
2022/11/08 01:00:46;;;;;;;11.00;4.20;;;;;;;8.55;100.00;99569.35;105938;1291;74595;-78
2022/11/08 01:03:34;;;;;;;11.50;3.50;;;;;;;8.53;99.95;99568.74;105920;1298;68058;-78
2022/11/08 01:06:24;;;;;;;9.20;4.20;;;;;;;8.52;99.91;99566.36;105924;1297;74044;-78
2022/11/08 01:09:12;;;;;;;8.60;3.60;;;;;;;8.49;99.98;99564.26;105926;1292;57453;-79
2022/11/08 01:12:00;;;;;;;13.00;3.90;;;;;;;8.49;100.00;99562.88;105147;1291;1002347;-79
2022/11/08 01:14:48;;;;;;;11.90;4.30;;;;;;;8.49;100.00;99556.55;105914;1292;74092;-79
2022/11/08 01:17:36;;;;;;;10.00;3.90;;;;;;;8.46;99.93;99555.02;105900;1290;67964;-78
2022/11/08 01:20:24;;;;;;;9.50;3.10;;;;;;;8.43;100.00;99557.51;105912;1290;72939;-79
2022/11/08 01:23:12;;;;;;;11.30;3.90;;;;;;;8.39;100.00;99553.57;105916;1297;57995;-78
2022/11/08 01:26:07;;;;;;;10.60;4.40;;;;;;;8.32;100.00;99550.19;105879;1290;61581;-77
2022/11/08 01:28:57;;;;;;;10.20;3.90;;;;;;;8.26;100.00;99544.27;105920;1285;73810;-79
2022/11/08 01:31:44;;;;;;;10.80;4.00;;;;;;;8.21;100.00;99539.52;105920;1297;67759;-80
2022/11/08 01:34:33;;;;;;;10.50;4.00;;;;;;;8.17;100.00;99537.55;105919;1292;73548;-79
2022/11/08 01:37:20;;;;;;;10.00;4.10;;;;;;;8.13;100.00;99535.71;105921;1284;57109;-79
2022/11/08 01:40:09;;;;;;;9.10;3.90;;;;;;;8.09;100.00;99536.38;105927;1292;61656;-79
2022/11/08 01:42:57;;;;;;;10.70;3.90;;;;;;;8.06;100.00;99537.88;105881;1281;74315;-78
2022/11/08 01:46:18;;;;;;;12.10;4.50;;;;;;;8.02;100.00;99538.54;105916;1291;67768;-79
2022/11/08 01:49:19;;;;;;;11.20;4.10;;;;;;;7.98;100.00;99540.36;105905;1293;73813;-79
2022/11/08 01:52:19;;;;;;;12.80;3.80;;;;;;;7.96;100.00;99540.39;105910;1291;59319;-78
2022/11/08 01:55:13;;;;;;;11.70;4.30;;;;;;;7.93;100.00;99532.30;105932;1291;59095;-78
2022/11/08 01:58:06;;;;;;;14.60;4.20;;;;;;;7.91;100.00;99528.95;105931;1291;71806;-79
2022/11/08 02:00:56;;;;;;;11.10;4.30;;;;;;;7.87;100.00;99531.13;105945;1288;66720;-79
2022/11/08 02:03:45;;;;;;;10.00;4.30;;;;;;;7.87;100.00;99525.71;105863;1290;72919;-79
2022/11/08 02:06:37;;;;;;;11.10;4.50;;;;;;;7.86;100.00;99522.92;105891;1285;61260;-79
2022/11/08 02:09:27;;;;;;;12.00;5.00;;;;;;;7.85;100.00;99527.80;105177;1290;1002276;-78
2022/11/08 02:12:20;;;;;;;10.60;4.10;;;;;;;7.83;100.00;99533.04;105900;1284;73186;-80
2022/11/08 02:15:09;;;;;;;11.10;4.50;;;;;;;7.81;100.00;99532.12;105862;1287;69090;-78
2022/11/08 02:17:57;;;;;;;12.80;4.50;;;;;;;7.80;100.00;99532.70;105864;1292;71072;-81
2022/11/08 02:21:10;;;;;;;10.60;4.10;;;;;;;7.78;100.00;99533.23;105919;1295;57889;-79
2022/11/08 02:24:07;;;;;;;9.40;4.10;;;;;;;7.77;100.00;99532.20;105948;1291;60037;-82
2022/11/08 02:26:55;;;;;;;11.10;5.30;;;;;;;7.76;100.00;99526.14;105804;1294;73025;-79
2022/11/08 02:29:42;;;;;;;9.70;4.50;;;;;;;7.73;100.00;99521.91;105950;1291;69366;-78
2022/11/08 02:32:42;;;;;;;10.70;4.40;;;;;;;7.72;100.00;99526.98;105907;1285;72769;-80
2022/11/08 02:35:29;;;;;;;11.50;5.00;;;;;;;7.68;100.00;99526.36;105908;1291;58254;-79
2022/11/08 02:38:18;;;;;;;10.00;4.20;;;;;;;7.67;100.00;99525.70;105936;1291;58846;-78
2022/11/08 02:41:07;;;;;;;11.90;5.00;;;;;;;7.67;100.00;99526.04;105892;1290;73339;-78
2022/11/08 02:43:56;;;;;;;10.70;4.70;;;;;;;7.68;100.00;99529.73;105931;1290;67826;-79
2022/11/08 02:46:44;;;;;;;14.80;5.50;;;;;;;7.69;100.00;99528.80;105931;1291;72379;-79
2022/11/08 02:49:32;;;;;;;12.10;5.00;;;;;;;7.71;100.00;99532.73;105881;1299;60804;-78
2022/11/08 02:52:19;;;;;;;10.30;5.10;;;;;;;7.72;100.00;99530.34;105931;1284;59427;-77
2022/11/08 02:55:07;;;;;;;11.40;4.50;;;;;;;7.72;100.00;99533.64;105888;1284;74285;-78
2022/11/08 02:57:56;;;;;;;10.00;4.70;;;;;;;7.73;100.00;99535.16;105934;1283;66582;-78
2022/11/08 03:00:43;;;;;;;10.90;5.10;;;;;;;7.74;100.00;99539.16;105916;1284;70747;-78
2022/11/08 03:03:31;;;;;;;11.10;5.30;;;;;;;7.76;100.00;99539.70;105913;1282;59696;-77
2022/11/08 03:06:19;;;;;;;10.00;5.00;;;;;;;7.79;100.00;99533.65;105938;1290;60236;-77
2022/11/08 03:09:07;;;;;;;13.40;5.20;;;;;;;7.83;100.00;99533.54;105939;1292;73004;-76
2022/11/08 03:11:55;;;;;;;11.40;5.20;;;;;;;7.87;100.00;99527.48;105907;1291;66638;-78
2022/11/08 03:14:43;;;;;;;11.20;5.00;;;;;;;7.89;100.00;99529.77;105175;1291;1002869;-78
2022/11/08 03:17:30;;;;;;;10.10;5.70;;;;;;;7.92;100.00;99531.67;105876;1292;60691;-78
2022/11/08 03:20:18;;;;;;;11.30;5.00;;;;;;;7.96;100.00;99529.79;105916;1291;60296;-78
2022/11/08 03:23:06;;;;;;;10.50;5.30;;;;;;;8.00;100.00;99527.73;105930;1284;74293;-77
2022/11/08 03:25:54;;;;;;;11.80;5.30;;;;;;;8.03;100.00;99523.56;105795;1292;66708;-78
2022/11/08 03:28:42;;;;;;;10.20;5.40;;;;;;;8.06;100.00;99523.93;105901;1297;73013;-78
2022/11/08 03:31:30;;;;;;;10.10;5.00;;;;;;;8.09;100.00;99520.85;105914;1291;59599;-78
2022/11/08 03:34:17;;;;;;;11.70;5.30;;;;;;;8.11;100.00;99521.06;105899;1283;62089;-78
2022/11/08 03:37:08;;;;;;;10.40;5.50;;;;;;;8.15;100.00;99525.64;105908;1291;73216;-77
2022/11/08 03:39:56;;;;;;;11.20;5.10;;;;;;;8.19;100.00;99524.12;105931;1284;66626;-77
2022/11/08 03:42:44;;;;;;;12.20;5.20;;;;;;;8.23;100.00;99524.91;105918;1284;72556;-77
2022/11/08 03:45:31;;;;;;;11.00;5.70;;;;;;;8.26;100.00;99526.77;105893;1292;59579;-76
2022/11/08 03:48:22;;;;;;;12.10;5.50;;;;;;;8.28;100.00;99526.81;105945;1288;60366;-76
2022/11/08 03:51:10;;;;;;;11.80;5.50;;;;;;;8.31;100.00;99529.41;105888;1291;74611;-77
2022/11/08 03:53:58;;;;;;;13.60;5.80;;;;;;;8.33;100.00;99533.11;105933;1291;67033;-78
2022/11/08 03:56:45;;;;;;;10.60;5.40;;;;;;;8.38;100.00;99533.48;105907;1291;72949;-77
2022/11/08 03:59:33;;;;;;;10.70;4.70;;;;;;;8.41;100.00;99534.34;105911;1291;60427;-78
2022/11/08 04:02:21;;;;;;;10.80;5.30;;;;;;;8.42;100.00;99532.27;105944;1291;60358;-78
2022/11/08 04:05:12;;;;;;;9.30;4.20;;;;;;;8.45;100.00;99531.75;105917;1291;74132;-78
2022/11/08 04:08:00;;;;;;;13.20;5.40;;;;;;;8.46;100.00;99526.16;105926;1283;68216;-78
2022/11/08 04:10:48;;;;;;;11.10;5.30;;;;;;;8.47;100.00;99527.14;105890;1291;74002;-79
2022/11/08 04:16:42;;;;;;;10.40;5.20;;;;;;;8.51;100.00;99530.20;105931;1291;59960;-77
2022/11/08 04:22:36;;;;;;;10.40;4.40;;;;;;;8.54;100.00;99531.92;105924;1291;67706;-76
2022/11/08 04:25:25;;;;;;;9.50;4.50;;;;;;;8.55;100.00;99529.93;105733;1297;72649;-75
2022/11/08 04:28:18;;;;;;;11.10;5.30;;;;;;;8.56;100.00;99532.30;105837;1290;60946;-78
2022/11/08 04:31:14;;;;;;;12.30;5.00;;;;;;;8.57;100.00;99532.63;105882;1291;61508;-78
2022/11/08 04:34:02;;;;;;;9.80;4.30;;;;;;;8.58;100.00;99530.20;105885;1284;73056;-77
2022/11/08 04:36:50;;;;;;;11.10;4.90;;;;;;;8.58;100.00;99531.59;105876;1284;69145;-76
2022/11/08 04:39:38;;;;;;;12.60;5.10;;;;;;;8.60;100.00;99532.94;105930;1291;72674;-77
2022/11/08 04:42:26;;;;;;;11.00;4.60;;;;;;;8.62;100.00;99534.70;105851;1290;60672;-77
2022/11/08 04:45:14;;;;;;;11.50;4.70;;;;;;;8.62;100.00;99526.52;105882;1292;60462;-78
2022/11/08 04:48:02;;;;;;;11.70;4.30;;;;;;;8.64;100.00;99526.59;105884;1283;72972;-79
2022/11/08 04:50:50;;;;;;;10.10;4.20;;;;;;;8.67;100.00;99524.42;105873;1292;65412;-78
2022/11/08 04:53:38;;;;;;;11.60;5.20;;;;;;;8.65;100.00;99523.98;105870;1287;71482;-77
2022/11/08 04:56:29;;;;;;;11.50;4.20;;;;;;;8.66;100.00;99517.19;105857;1292;57627;-77
2022/11/08 04:59:16;;;;;;;13.40;5.10;;;;;;;8.65;100.00;99520.80;105905;1292;60373;-77
2022/11/08 05:02:04;;;;;;;10.30;4.30;;;;;;;8.67;100.00;99514.13;105746;1287;73043;-78
2022/11/08 05:04:52;;;;;;;14.10;3.90;;;;;;;8.67;100.00;99515.01;105909;1283;67834;-78
2022/11/08 05:07:40;;;;;;;11.00;4.40;;;;;;;8.67;100.00;99521.01;105873;1292;71000;-77
2022/11/08 05:10:28;;;;;;;12.80;5.10;;;;;;;8.68;100.00;99519.15;105908;1284;57974;-77
2022/11/08 05:13:15;;;;;;;12.00;5.00;;;;;;;8.68;100.00;99518.09;105905;1290;60373;-78
2022/11/08 05:16:07;;;;;;;13.50;4.10;;;;;;;8.71;100.00;99519.86;105933;1284;73300;-79
2022/11/08 05:18:55;;;;;;;10.00;4.20;;;;;;;8.70;100.00;99520.60;105943;1283;67588;-79
2022/11/08 05:24:49;;;;;;;11.00;4.80;;;;;;;8.71;100.00;99522.46;105886;1291;58716;-80
2022/11/08 05:27:37;;;;;;;10.40;4.20;;;;;;;8.71;100.00;99521.73;105896;1284;61662;-78
2022/11/08 05:30:25;;;;;;;11.00;4.30;;;;;;;8.74;100.00;99523.88;105849;1290;72826;-77
2022/11/08 05:33:14;;;;;;;11.70;4.50;;;;;;;8.75;100.00;99530.50;105890;1291;67840;-77
2022/11/08 05:36:05;;;;;;;10.10;3.80;;;;;;;8.77;100.00;99530.70;105871;1291;73676;-77
2022/11/08 05:38:54;;;;;;;10.00;4.40;;;;;;;8.79;100.00;99534.98;105891;1291;60450;-77
2022/11/08 05:41:41;;;;;;;10.90;4.10;;;;;;;8.80;100.00;99531.14;105913;1291;59264;-79
2022/11/08 05:44:30;;;;;;;10.80;3.90;;;;;;;8.82;100.00;99529.77;105740;1291;204276;-77
2022/11/08 05:47:18;;;;;;;9.20;3.20;;;;;;;8.83;100.00;99533.58;105904;1283;66384;-76
2022/11/08 05:50:06;;;;;;;12.70;4.00;;;;;;;8.82;100.00;99541.73;105866;1292;73947;-77
2022/11/08 05:52:53;;;;;;;12.40;4.30;;;;;;;8.84;100.00;99544.46;105893;1291;59249;-79
2022/11/08 05:55:42;;;;;;;10.50;3.40;;;;;;;8.84;100.00;99548.86;105909;1291;58746;-78
2022/11/08 05:58:33;;;;;;;9.70;3.40;;;;;;;8.85;100.00;99551.31;105891;1290;73050;-79
2022/11/08 06:01:21;;;;;;;10.50;4.20;;;;;;;8.85;100.00;99554.83;105916;1290;66682;-78
2022/11/08 06:04:08;;;;;;;10.70;3.50;;;;;;;8.84;100.00;99555.75;105864;1292;72393;-79
2022/11/08 06:06:56;;;;;;;10.30;4.40;;;;;;;8.82;100.00;99561.92;105890;1291;57272;-78
2022/11/08 06:09:44;;;;;;;11.20;4.50;;;;;;;8.79;100.00;99568.02;106002;1282;58998;-78
2022/11/08 06:12:32;;;;;;;14.00;6.60;;;;;;;8.76;100.00;99566.70;106089;1291;73255;-79
2022/11/08 06:15:21;;;;;;;12.30;4.80;;;;;;;8.77;100.00;99567.68;105962;1284;67868;-80
2022/11/08 06:18:09;;;;;;;10.40;4.40;;;;;;;8.77;100.00;99566.10;105910;1284;72863;-79
2022/11/08 06:20:58;;;;;;;9.20;4.80;;;;;;;8.78;100.00;99566.39;105934;1290;57916;-78
2022/11/08 06:23:46;;;;;;;16.40;7.00;;;;;;;8.77;100.00;99568.88;106024;1294;59927;-79
2022/11/08 06:26:34;;;;;;;11.20;5.10;;;;;;;8.79;100.00;99577.41;105890;1283;72272;-80
2022/11/08 06:29:22;;;;;;;11.10;5.00;;;;;;;8.80;100.00;99578.71;105907;1291;66529;-81
2022/11/08 06:32:10;;;;;;;10.90;4.40;;;;;;;8.83;100.00;99582.21;105878;1291;73473;-80
2022/11/08 06:34:58;;;;;;;8.90;4.40;;;;;;;8.84;100.00;99580.73;105881;1292;59808;-81
2022/11/08 06:37:46;;;;;;;11.90;4.80;;;;;;;8.84;100.00;99578.90;105937;1285;59057;-78
2022/11/08 06:40:36;;;;;;;13.00;4.30;;;;;;;8.85;99.94;99573.70;105895;1291;71485;-77
2022/11/08 06:43:24;;;;;;;11.30;4.30;;;;;;;8.86;99.97;99576.29;105907;1292;68015;-78
2022/11/08 06:46:14;;;;;;;11.40;4.50;;;;;;;8.84;99.92;99571.16;105934;1284;71314;-78
2022/11/08 06:49:01;;;;;;;12.80;4.50;;;;;;;8.81;99.94;99569.80;105916;1291;58663;-78
2022/11/08 06:51:51;;;;;;;12.50;4.80;;;;;;;8.80;100.00;99568.27;105972;1288;61520;-77
2022/11/08 06:54:43;;;;;;;11.50;4.30;;;;;;;8.81;99.95;99564.15;105969;1291;74283;-78
2022/11/08 06:57:32;;;;;;;11.30;4.70;;;;;;;8.81;99.99;99563.42;105963;1290;68053;-78
2022/11/08 07:00:21;;;;;;;11.20;4.30;;;;;;;8.83;100.00;99574.02;105911;1280;72464;-79
2022/11/08 07:03:09;;;;;;;11.10;4.10;;;;;;;8.89;99.95;99572.42;105992;1284;59275;-78
2022/11/08 07:06:00;;;;;;;10.10;4.40;;;;;;;8.92;99.98;99569.52;105906;1291;60065;-80
2022/11/08 07:08:48;;;;;;;12.30;4.60;;;;;;;8.96;99.90;99565.25;105959;1291;72943;-80
2022/11/08 07:11:37;;;;;;;12.30;4.00;;;;;;;9.04;99.61;99569.11;105851;1293;67873;-79
2022/11/08 07:14:25;;;;;;;10.80;3.90;;;;;;;9.10;99.43;99566.33;105860;1288;71458;-79
2022/11/08 07:17:14;;;;;;;10.60;3.90;;;;;;;9.17;99.15;99563.76;105808;1294;59220;-79
2022/11/08 07:20:05;;;;;;;10.10;3.30;;;;;;;9.23;98.83;99562.29;105980;1284;61337;-78
2022/11/08 07:22:57;;;;;;;11.20;4.30;;;;;;;9.27;98.48;99570.09;105912;1284;73099;-78
2022/11/08 07:25:46;;;;;;;11.20;4.50;;;;;;;9.31;98.24;99564.86;105932;1292;65442;-80
2022/11/08 07:28:34;;;;;;;11.00;4.30;;;;;;;9.34;98.08;99569.33;105999;1292;72704;-79
2022/11/08 07:31:22;;;;;;;11.40;5.00;;;;;;;9.36;97.75;99567.39;105976;1290;58120;-78
2022/11/08 07:34:10;;;;;;;13.70;5.30;;;;;;;9.39;97.66;99567.90;105995;1284;59132;-80
2022/11/08 07:36:58;;;;;;;13.60;6.00;;;;;;;9.39;97.47;99565.39;105978;1290;72962;-80
2022/11/08 07:39:46;;;;;;;17.70;7.00;;;;;;;9.40;97.69;99564.26;105980;1291;67869;-78
2022/11/08 07:42:39;;;;;;;15.40;6.40;;;;;;;9.43;97.29;99566.89;105942;1290;72857;-79
2022/11/08 07:45:56;;;;;;;13.70;6.00;;;;;;;9.48;97.42;99568.92;105990;1291;58079;-80
2022/11/08 07:48:44;;;;;;;10.70;5.40;;;;;;;9.54;97.43;99567.38;105995;1291;58996;-82
2022/11/08 07:51:32;;;;;;;13.80;5.00;;;;;;;9.61;97.37;99567.56;105989;1291;71811;-79
2022/11/08 07:54:20;;;;;;;12.90;4.70;;;;;;;9.68;96.96;99566.44;105995;1282;66395;-79
2022/11/08 07:57:08;;;;;;;13.10;4.90;;;;;;;9.75;96.94;99560.75;105935;1290;71505;-78
2022/11/08 07:59:56;;;;;;;13.90;4.70;;;;;;;9.82;96.91;99564.05;105994;1291;57690;-79
2022/11/08 08:02:43;;;;;;;10.90;4.00;;;;;;;9.87;96.47;99561.86;105922;1290;58868;-77
2022/11/08 08:05:52;;;;;;;11.10;3.80;;;;;;;9.93;96.33;99562.49;105917;1282;73428;-78
2022/11/08 08:08:47;;;;;;;10.50;4.30;;;;;;;10.00;96.23;99565.08;106010;1290;65967;-79
2022/11/08 08:11:36;;;;;;;12.00;3.80;;;;;;;10.05;96.18;99562.33;106007;1290;72438;-78
2022/11/08 08:14:25;;;;;;;8.90;3.20;;;;;;;10.10;95.59;99562.96;105982;1291;57972;-80
2022/11/08 08:17:13;;;;;;;10.50;3.80;;;;;;;10.14;95.43;99560.49;105919;1291;59117;-79
2022/11/08 08:20:01;;;;;;;10.00;3.90;;;;;;;10.19;95.37;99557.41;105897;1291;72761;-79
2022/11/08 08:22:51;;;;;;;9.90;3.50;;;;;;;10.25;95.78;99561.40;105845;1285;66269;-77
2022/11/08 08:25:39;;;;;;;9.60;4.10;;;;;;;10.34;95.26;99557.08;105857;1284;72631;-78
2022/11/08 08:28:26;;;;;;;12.50;4.80;;;;;;;10.46;95.05;99560.18;105913;1291;57164;-77
2022/11/08 08:31:14;;;;;;;14.20;4.50;;;;;;;10.55;94.48;99561.50;105894;1292;59853;-79
2022/11/08 08:34:03;;;;;;;13.50;4.50;;;;;;;10.68;94.00;99563.61;105843;1294;74009;-78
2022/11/08 08:36:50;;;;;;;12.00;4.30;;;;;;;10.84;93.57;99562.45;105900;1284;67895;-78
2022/11/08 08:39:38;;;;;;;14.60;4.40;;;;;;;11.01;91.96;99563.60;105924;1283;72915;-78
2022/11/08 08:42:26;;;;;;;11.20;4.30;;;;;;;11.36;90.50;99557.56;105887;1283;59143;-78
2022/11/08 08:45:14;;;;;;;13.00;4.90;;;;;;;11.80;88.11;99562.11;105952;1291;60092;-79
2022/11/08 08:48:03;;;;;;;15.00;4.50;;;;;;;12.43;84.97;99554.77;105990;1290;72864;-78
2022/11/08 08:50:51;;;;;;;15.60;4.40;;;;;;;12.70;82.55;99560.45;105971;1290;69016;-76
2022/11/08 08:53:39;;;;;;;15.40;4.00;;;;;;;12.86;81.99;99563.58;105994;1290;72308;-75
2022/11/08 08:56:27;;;;;;;13.50;4.80;;;;;;;13.35;81.65;99559.59;105966;1291;60834;-76
2022/11/08 08:59:14;;;;;;;14.30;4.50;;;;;;;14.08;77.85;99553.48;105978;1290;58862;-77
2022/11/08 09:02:22;;;;;;;10.50;3.70;;;;;;;13.97;75.64;99557.66;105991;1290;73450;-80
2022/11/08 09:05:12;;;;;;;10.90;3.60;;;;;;;13.86;76.04;99562.45;105875;1284;67724;-78
2022/11/08 09:08:00;;;;;;;10.30;3.80;;;;;;;14.26;75.70;99559.73;105967;1292;72853;-79
2022/11/08 09:10:53;;;;;;;11.50;3.70;;;;;;;14.97;72.72;99559.14;105882;1291;60782;-79
2022/11/08 09:13:41;;;;;;;11.30;3.80;;;;;;;15.17;70.90;99558.33;105931;1290;59118;-77
2022/11/08 09:16:28;;;;;;;10.10;3.50;;;;;;;15.15;70.77;99563.52;105945;1291;71561;-78
2022/11/08 09:19:17;;;;;;;10.40;3.20;;;;;;;15.20;70.21;99557.27;105928;1291;67886;-79
2022/11/08 09:22:04;;;;;;;12.00;3.60;;;;;;;15.30;69.93;99558.14;105934;1297;73773;-77
2022/11/08 09:24:52;;;;;;;13.60;4.10;;;;;;;15.59;67.58;99556.21;105930;1285;57771;-76
2022/11/08 09:27:40;;;;;;;10.90;3.30;;;;;;;16.05;66.88;99557.40;105939;1291;58703;-78
2022/11/08 09:30:28;;;;;;;12.00;3.50;;;;;;;16.31;66.14;99553.58;105912;1295;74106;-79
2022/11/08 09:33:16;;;;;;;10.90;3.40;;;;;;;16.58;66.58;99562.17;105933;1284;68300;-78
2022/11/08 09:36:08;;;;;;;12.70;3.50;;;;;;;16.73;65.45;99560.63;105928;1290;72382;-78
2022/11/08 09:38:56;;;;;;;9.20;3.10;;;;;;;16.70;65.75;99567.29;105903;1284;58014;-79
2022/11/08 09:41:47;;;;;;;9.80;3.40;;;;;;;18.14;63.78;99561.08;105916;1284;60116;-78
2022/11/08 09:45:09;;;;;;;13.00;3.20;;;;;;;20.26;57.51;99556.98;105947;1291;73079;-78
2022/11/08 09:48:01;;;;;;;13.00;3.80;;;;;;;21.98;51.01;99556.98;105938;1291;69150;-75
2022/11/08 09:50:56;;;;;;;10.40;3.50;;;;;;;22.28;47.70;99554.52;105883;1292;72420;-78
2022/11/08 09:54:03;;;;;;;12.30;3.90;;;;;;;21.92;48.71;99554.93;105833;1287;57266;-78
2022/11/08 09:56:53;;;;;;;10.80;5.00;;;;;;;20.96;49.28;99550.89;105933;1290;60583;-77
2022/11/08 09:59:48;;;;;;;13.00;3.10;;;;;;;19.69;51.25;99558.89;105937;1291;71382;-76
2022/11/08 10:02:35;;;;;;;9.30;2.50;;;;;;;19.10;53.54;99558.89;105893;1287;68886;-77
2022/11/08 10:05:33;;;;;;;9.30;2.70;;;;;;;19.48;53.00;99556.10;105911;1288;73954;-77
2022/11/08 10:08:35;;;;;;;7.50;3.00;;;;;;;20.32;51.37;99551.48;105946;1291;59646;-78
2022/11/08 10:11:56;;;;;;;8.40;3.00;;;;;;;21.09;48.57;99549.23;105900;1291;58992;-78
2022/11/08 10:15:05;;;;;;;9.40;2.80;;;;;;;20.69;48.74;99555.31;105894;1292;74244;-77
2022/11/08 10:18:18;;;;;;;9.70;2.60;;;;;;;20.77;48.14;99555.66;105963;1291;66723;-78
2022/11/08 10:21:17;;;;;;;10.10;2.70;;;;;;;20.31;48.81;99551.14;105922;1285;73939;-75
2022/11/08 10:24:25;;;;;;;8.60;2.50;;;;;;;19.79;50.01;99556.23;105936;1285;57706;-78
2022/11/08 10:27:39;;;;;;;9.60;2.80;;;;;;;20.17;49.97;99554.69;105887;1284;58677;-74
2022/11/08 10:30:34;;;;;;;8.90;3.20;;;;;;;20.88;47.66;99548.41;105856;1294;71796;-75
2022/11/08 10:33:55;;;;;;;7.80;2.50;;;;;;;20.66;47.95;99549.30;105881;1278;68952;-75
2022/11/08 10:36:46;;;;;;;7.10;2.40;;;;;;;21.56;47.15;99545.14;105898;1292;72810;-77
2022/11/08 10:39:42;;;;;;;9.60;2.70;;;;;;;22.43;44.45;99547.20;105888;1289;59169;-78
2022/11/08 10:43:19;;;;;;;8.30;2.30;;;;;;;22.99;43.29;99539.42;105920;1285;60551;-76
2022/11/08 10:46:38;;;;;;;8.00;2.30;;;;;;;23.94;40.43;99534.02;105370;1293;72133;-76
2022/11/08 10:49:27;;;;;;;8.20;2.10;;;;;;;24.36;39.75;99530.64;105451;1304;67546;-75
2022/11/08 10:52:24;;;;;;;7.90;2.20;;;;;;;24.94;38.98;99528.69;105478;1304;71562;-77
2022/11/08 10:55:37;;;;;;;7.90;2.30;;;;;;;24.98;38.03;99522.76;105467;1297;58149;-77
2022/11/08 10:58:39;;;;;;;6.90;2.30;;;;;;;24.43;38.59;99522.85;105479;1297;58488;-78
2022/11/08 11:01:27;;;;;;;8.90;2.60;;;;;;;24.20;39.31;99522.55;105483;1297;71529;-74
2022/11/08 11:04:33;;;;;;;7.50;2.20;;;;;;;24.00;39.10;99521.58;105541;1296;67845;-74
2022/11/08 11:08:25;;;;;;;9.00;2.60;;;;;;;23.29;40.58;99520.21;105482;1297;73939;-74
2022/11/08 11:11:30;;;;;;;8.30;2.20;;;;;;;23.55;40.63;99515.27;104867;1310;57332;-77
2022/11/08 11:14:24;;;;;;;8.80;2.10;;;;;;;23.81;40.32;99516.84;104869;1303;59341;-79
2022/11/08 11:17:23;;;;;;;8.90;2.30;;;;;;;23.21;40.74;99512.59;104894;1303;74065;-77
2022/11/08 11:20:21;;;;;;;9.20;2.20;;;;;;;22.57;42.04;99519.36;105122;1305;68018;-78
2022/11/08 11:23:10;;;;;;;7.40;2.30;;;;;;;22.25;42.73;99522.66;105285;1306;73773;-75
2022/11/08 11:25:58;;;;;;;8.80;2.60;;;;;;;21.91;43.43;99521.67;105324;1300;57683;-75
2022/11/08 11:29:04;;;;;;;9.00;2.50;;;;;;;21.42;44.34;99517.45;105349;1296;61606;-75
2022/11/08 11:31:53;;;;;;;8.60;2.30;;;;;;;21.25;45.30;99521.09;105367;1306;74597;-75
2022/11/08 11:35:03;;;;;;;7.70;2.10;;;;;;;21.36;45.63;99517.70;105376;1297;66479;-75
2022/11/08 11:37:53;;;;;;;8.40;2.30;;;;;;;21.60;45.13;99515.56;105393;1290;72828;-73
2022/11/08 11:40:45;;;;;;;9.30;2.30;;;;;;;21.51;44.96;99517.14;105394;1292;57983;-75
2022/11/08 11:43:45;;;;;;;8.10;2.30;;;;;;;21.62;45.11;99515.98;105337;1297;60103;-73
2022/11/08 11:46:54;;;;;;;7.90;2.30;;;;;;;21.75;44.92;99516.38;105360;1299;73273;-71
2022/11/08 11:49:46;;;;;;;8.60;2.50;;;;;;;21.86;44.95;99521.30;105965;1292;67438;-72
2022/11/08 11:52:34;;;;;;;10.80;2.30;;;;;;;21.99;44.67;99527.03;105996;1297;73724;-73
2022/11/08 11:55:40;;;;;;;9.00;2.30;;;;;;;21.74;44.63;99521.57;105927;1277;57184;-73
2022/11/08 11:59:05;;;;;;;9.50;2.40;;;;;;;21.35;45.21;99515.08;106005;1292;60359;-73
2022/11/08 12:02:42;;;;;;;7.80;2.50;;;;;;;21.04;45.67;99513.59;105963;1290;74015;-75
2022/11/08 12:06:10;;;;;;;8.00;2.30;;;;;;;21.04;46.63;99515.14;105992;1288;69060;-75
2022/11/08 12:09:10;;;;;;;10.00;3.10;;;;;;;20.91;46.22;99523.21;105347;1296;72915;-75
2022/11/08 12:12:17;;;;;;;12.20;3.50;;;;;;;20.28;47.07;99520.02;105391;1293;59317;-73
2022/11/08 12:15:26;;;;;;;9.60;3.00;;;;;;;19.83;48.39;99524.04;105408;1295;58698;-72
2022/11/08 12:18:54;;;;;;;9.80;3.00;;;;;;;19.37;49.65;99528.23;105301;1301;73873;-72
2022/11/08 12:22:06;;;;;;;9.80;2.70;;;;;;;19.27;50.19;99526.68;105391;1299;66929;-74
2022/11/08 12:25:10;;;;;;;8.70;2.60;;;;;;;19.21;50.71;99526.29;105399;1298;73999;-74
2022/11/08 12:28:18;;;;;;;9.20;2.30;;;;;;;18.92;51.16;99524.23;105327;1300;58018;-72
2022/11/08 12:31:24;;;;;;;9.60;2.80;;;;;;;18.39;51.90;99518.16;105158;1298;59358;-73
2022/11/08 12:34:27;;;;;;;10.10;2.80;;;;;;;17.95;53.25;99516.89;105021;1303;73886;-79
2022/11/08 12:37:58;;;;;;;8.00;2.70;;;;;;;17.80;53.93;99527.78;105162;1300;69089;-79
2022/11/08 12:41:33;;;;;;;9.00;2.50;;;;;;;17.56;54.82;99525.86;105164;1300;70838;-79
2022/11/08 12:44:44;;;;;;;10.70;3.10;;;;;;;17.12;56.41;99527.88;105050;1302;57933;-79
2022/11/08 12:48:05;;;;;;;11.70;2.70;;;;;;;16.90;57.16;99531.21;105742;1294;60381;-79
2022/11/08 12:51:22;;;;;;;10.60;3.00;;;;;;;16.41;58.68;99532.48;105735;1287;72773;-79
2022/11/08 12:54:19;;;;;;;9.80;3.10;;;;;;;16.07;60.08;99534.98;105709;1288;67926;-80
2022/11/08 12:57:15;;;;;;;9.70;2.70;;;;;;;15.77;61.72;99535.46;105735;1292;73284;-79
2022/11/08 13:00:16;;;;;;;11.50;3.40;;;;;;;15.39;63.23;99536.65;105607;1300;58005;-79
2022/11/08 13:03:10;;;;;;;10.90;3.10;;;;;;;15.18;64.15;99534.04;105855;1292;59138;-79
2022/11/08 13:06:13;;;;;;;10.00;3.20;;;;;;;14.90;65.53;99536.61;105959;1292;71368;-79
2022/11/08 13:09:30;;;;;;;10.20;3.00;;;;;;;14.54;66.82;99538.19;105897;1298;67921;-79
2022/11/08 13:12:20;;;;;;;11.90;3.50;;;;;;;14.28;67.59;99545.23;105964;1292;72677;-78
2022/11/08 13:15:23;;;;;;;10.80;3.00;;;;;;;14.14;68.19;99543.84;105954;1283;59569;-78
2022/11/08 13:18:21;;;;;;;10.70;3.20;;;;;;;13.96;69.58;99544.18;105925;1291;60239;-80
2022/11/08 13:21:40;;;;;;;10.10;3.10;;;;;;;13.76;70.63;99553.86;105973;1291;71198;-79
2022/11/08 13:24:32;;;;;;;15.00;3.50;;;;;;;13.53;71.88;99557.50;105994;1290;66474;-79
2022/11/08 13:27:44;;;;;;;9.90;3.00;;;;;;;13.40;73.00;99555.89;105898;1294;73974;-79
2022/11/08 13:30:37;;;;;;;10.30;3.50;;;;;;;13.33;73.70;99562.67;105868;1284;57901;-79
2022/11/08 13:33:30;;;;;;;11.00;4.00;;;;;;;13.21;74.49;99558.95;105774;1291;61577;-78
2022/11/08 13:36:46;;;;;;;11.30;3.60;;;;;;;13.16;74.59;99556.48;105905;1290;72470;-78
2022/11/08 13:39:40;;;;;;;12.40;3.60;;;;;;;13.08;75.83;99560.25;105891;1285;66560;-80
2022/11/08 13:42:30;;;;;;;13.60;3.80;;;;;;;12.98;76.63;99562.91;105944;1288;72544;-77